Time;durP1;ratioP1;P1;durP2;ratioP2;P2;SDS_P1;SDS_P2;PMS_P1;PMS_P2;Temp;Humidity;BMP_temperature;BMP_pressure;BME280_temperature;BME280_humidity;BME280_pressure;Samples;Min_cycle;Max_cycle;Signal;HPM_P1;HPM_P2
2021/12/31 00:00:14;;;;;;;;;3.50;3.50;;;;;13.75;87.67;100111.31;5090662;28;8829;-56
2021/12/31 00:02:42;;;;;;;;;1.50;1.50;;;;;13.80;87.49;100109.03;5091199;28;8853;-56
2021/12/31 00:05:10;;;;;;;;;3.00;3.00;;;;;13.83;87.44;100111.47;5092429;28;8842;-56
2021/12/31 00:07:37;;;;;;;;;3.75;3.00;;;;;13.85;87.66;100102.31;5092795;28;8832;-56
2021/12/31 00:10:05;;;;;;;;;0.25;0.25;;;;;13.89;87.55;100102.88;5090252;28;8856;-57
2021/12/31 00:12:33;;;;;;;;;3.00;3.00;;;;;13.90;86.91;100104.56;5091827;28;8850;-57
2021/12/31 00:15:00;;;;;;;;;1.00;1.00;;;;;13.93;87.18;100093.56;5090662;28;8976;-56
2021/12/31 00:17:28;;;;;;;;;2.50;2.50;;;;;13.97;86.66;100089.66;5089009;28;8842;-56
2021/12/31 00:20:02;;;;;;;;;1.50;1.50;;;;;13.99;86.88;100093.88;5090319;28;8935;-56
2021/12/31 00:22:55;;;;;;;;;2.50;1.00;;;;;14.01;86.22;100085.69;5091596;28;9036;-56
2021/12/31 00:25:23;;;;;;;;;3.00;3.00;;;;;14.03;86.35;100092.59;5091892;28;8846;-56
2021/12/31 00:27:51;;;;;;;;;3.00;2.50;;;;;14.03;86.25;100089.09;5091844;28;8865;-56
2021/12/31 00:30:19;;;;;;;;;2.50;1.50;;;;;14.03;86.75;100097.94;5091614;28;8977;-56
2021/12/31 00:32:46;;;;;;;;;2.00;1.00;;;;;14.05;86.38;100097.81;5089009;28;8854;-57
2021/12/31 00:35:15;;;;;;;;;0.00;0.00;;;;;14.06;86.37;100099.50;5091149;28;8845;-56
2021/12/31 00:37:43;;;;;;;;;3.00;3.00;;;;;14.07;86.29;100095.84;5091093;28;8891;-57
2021/12/31 00:40:10;;;;;;;;;1.00;1.00;;;;;14.09;85.85;100081.34;5090510;28;9520;-57
2021/12/31 00:42:38;;;;;;;;;2.00;2.00;;;;;14.13;86.26;100089.94;5091307;28;8864;-56
2021/12/31 00:45:06;;;;;;;;;2.50;2.50;;;;;14.16;86.14;100084.28;5090582;28;8830;-56
2021/12/31 00:47:34;;;;;;;;;3.75;3.00;;;;;14.17;85.87;100092.19;5090103;28;8877;-57
2021/12/31 00:50:01;;;;;;;;;2.00;2.00;;;;;14.19;85.46;100086.72;5087249;28;8842;-56
2021/12/31 00:52:29;;;;;;;;;1.00;1.00;;;;;14.23;85.36;100088.97;5088565;28;8826;-56
2021/12/31 00:54:56;;;;;;;;;1.00;1.00;;;;;14.26;85.37;100074.47;5090704;28;9312;-57
2021/12/31 00:57:24;;;;;;;;;3.00;3.00;;;;;14.29;85.13;100088.41;5091057;28;9573;-56
2021/12/31 00:59:52;;;;;;;;;3.25;3.00;;;;;14.31;84.88;100091.78;5089981;28;8856;-56
2021/12/31 01:02:22;;;;;;;;;2.60;2.60;;;;;14.34;84.97;100098.72;5091017;28;8845;-57
2021/12/31 01:04:50;;;;;;;;;0.75;0.75;;;;;14.35;84.71;100100.41;5090969;28;8853;-57
2021/12/31 01:07:17;;;;;;;;;2.50;1.00;;;;;14.38;84.29;100084.88;5090053;28;8850;-57
2021/12/31 01:09:46;;;;;;;;;0.20;0.20;;;;;14.41;84.30;100081.06;5091235;28;8853;-56
2021/12/31 01:12:14;;;;;;;;;1.00;1.00;;;;;14.44;84.37;100086.13;5089930;28;9621;-56
2021/12/31 01:14:52;;;;;;;;;3.25;3.00;;;;;14.46;83.71;100087.69;5091042;28;8849;-57
2021/12/31 01:17:26;;;;;;;;;3.00;1.00;;;;;14.46;83.33;100087.69;5090701;28;8865;-56
2021/12/31 01:19:53;;;;;;;;;0.75;0.75;;;;;14.47;83.77;100093.88;5090999;28;8826;-56
2021/12/31 01:22:23;;;;;;;;;1.00;1.00;;;;;14.47;83.89;100099.25;5090313;28;8860;-56
2021/12/31 01:24:51;;;;;;;;;1.00;1.00;;;;;14.45;84.02;100095.88;5090926;28;8838;-57
2021/12/31 01:27:18;;;;;;;;;1.00;0.20;;;;;14.45;83.49;100098.53;5090124;28;8842;-56
2021/12/31 01:29:46;;;;;;;;;3.00;2.00;;;;;14.44;83.58;100110.25;5090317;28;8850;-57
2021/12/31 01:32:14;;;;;;;;;0.80;0.60;;;;;14.45;83.56;100119.97;5089763;28;8844;-57
2021/12/31 01:34:42;;;;;;;;;0.60;0.00;;;;;14.47;83.56;100104.59;5090100;28;8865;-57
2021/12/31 01:37:10;;;;;;;;;1.00;1.00;;;;;14.48;83.24;100104.47;5091343;28;8842;-57
2021/12/31 01:39:37;;;;;;;;;0.40;0.40;;;;;14.51;82.76;100116.75;5090348;28;9527;-57
2021/12/31 01:42:05;;;;;;;;;1.00;0.00;;;;;14.53;82.83;100117.44;5091405;28;8837;-57
2021/12/31 01:44:37;;;;;;;;;3.80;3.20;;;;;14.56;82.71;100126.03;5095258;28;8822;-56
2021/12/31 01:47:05;;;;;;;;;0.00;0.00;;;;;14.58;82.58;100123.22;5094412;28;8849;-56
2021/12/31 01:49:36;;;;;;;;;1.00;1.00;;;;;14.59;82.97;100115.03;5092916;28;9712;-57
2021/12/31 01:52:04;;;;;;;;;3.00;3.00;;;;;14.58;82.38;100104.47;5093416;28;9522;-56
2021/12/31 01:54:32;;;;;;;;;2.75;2.50;;;;;14.57;82.64;100117.00;5094568;28;8865;-57
2021/12/31 01:57:00;;;;;;;;;1.00;1.00;;;;;14.58;82.45;100109.81;5094093;28;9736;-56
2021/12/31 01:59:27;;;;;;;;;0.40;0.00;;;;;14.60;82.42;100110.50;5094317;28;8976;-57
2021/12/31 02:01:55;;;;;;;;;0.00;0.00;;;;;14.60;81.86;100099.78;5093602;28;8856;-57
2021/12/31 02:04:23;;;;;;;;;0.00;0.00;;;;;14.59;82.15;100098.09;5094154;28;8837;-56
2021/12/31 02:06:51;;;;;;;;;1.20;0.80;;;;;14.58;82.00;100101.78;5094135;28;8856;-56
2021/12/31 02:09:19;;;;;;;;;0.60;0.60;;;;;14.59;82.12;100114.19;5093607;28;8872;-57
2021/12/31 02:11:46;;;;;;;;;0.00;0.00;;;;;14.58;81.77;100102.59;5092699;28;8846;-57
2021/12/31 02:14:14;;;;;;;;;2.20;1.00;;;;;14.59;81.75;100114.19;5093419;28;8868;-57
2021/12/31 02:16:42;;;;;;;;;0.00;0.00;;;;;14.59;81.81;100103.47;5092463;28;8868;-56
2021/12/31 02:19:10;;;;;;;;;0.80;0.20;;;;;14.58;81.62;100107.97;5093695;28;8838;-56
2021/12/31 02:21:37;;;;;;;;;0.40;0.40;;;;;14.59;81.84;100098.09;5093796;28;8862;-56
2021/12/31 02:24:07;;;;;;;;;1.00;1.00;;;;;14.59;82.16;100095.44;5094237;28;8838;-57
2021/12/31 02:26:34;;;;;;;;;1.00;0.00;;;;;14.59;81.76;100098.97;5093667;28;8845;-57
2021/12/31 02:29:02;;;;;;;;;0.00;0.00;;;;;14.59;81.62;100098.97;5093487;28;8980;-56
2021/12/31 02:31:30;;;;;;;;;0.50;0.50;;;;;14.60;82.23;100105.16;5092590;28;8846;-56
2021/12/31 02:33:58;;;;;;;;;1.00;1.00;;;;;14.59;81.83;100100.78;5092205;28;8867;-56
2021/12/31 02:36:26;;;;;;;;;0.75;0.75;;;;;14.59;82.21;100104.31;5092164;28;8875;-56
2021/12/31 02:38:53;;;;;;;;;0.50;0.00;;;;;14.59;81.58;100108.81;5092322;28;8877;-57
2021/12/31 02:41:21;;;;;;;;;3.50;0.50;;;;;14.60;82.03;100118.56;5092348;28;9532;-56
2021/12/31 02:43:49;;;;;;;;;0.00;0.00;;;;;14.60;81.47;100114.06;5092005;28;8846;-56
2021/12/31 02:46:18;;;;;;;;;0.40;0.40;;;;;14.60;81.63;100124.78;5092578;28;8826;-57
2021/12/31 02:48:55;;;;;;;;;1.00;1.00;;;;;14.60;81.34;100123.91;5091482;28;8842;-56
2021/12/31 02:51:22;;;;;;;;;1.00;1.00;;;;;14.59;81.74;100111.50;5090472;28;8868;-57
2021/12/31 02:53:50;;;;;;;;;1.40;1.40;;;;;14.59;81.32;100111.50;5092176;28;8849;-57
2021/12/31 02:56:18;;;;;;;;;1.60;0.80;;;;;14.58;81.35;100107.97;5092079;28;8864;-56
2021/12/31 02:58:46;;;;;;;;;1.00;1.00;;;;;14.59;81.49;100108.81;5092354;28;8868;-57
2021/12/31 03:01:13;;;;;;;;;1.00;0.20;;;;;14.58;81.39;100104.47;5092108;28;8849;-57
2021/12/31 03:03:41;;;;;;;;;0.00;0.00;;;;;14.58;80.84;100099.09;5093302;28;8972;-57
2021/12/31 03:06:09;;;;;;;;;1.40;1.40;;;;;14.56;81.12;100099.22;5091597;28;8862;-57
2021/12/31 03:08:37;;;;;;;;;0.40;0.40;;;;;14.56;80.72;100096.56;5091372;28;8989;-57
2021/12/31 03:11:04;;;;;;;;;1.00;1.00;;;;;14.54;81.12;100089.63;5091165;28;8842;-57
2021/12/31 03:13:32;;;;;;;;;1.40;1.00;;;;;14.50;81.38;100091.75;5091794;28;8868;-57
2021/12/31 03:16:00;;;;;;;;;1.00;1.00;;;;;14.51;81.00;100092.63;5092490;28;8854;-56
2021/12/31 03:18:28;;;;;;;;;0.00;0.00;;;;;14.48;80.94;100093.75;5091442;28;8877;-56
2021/12/31 03:21:02;;;;;;;;;0.00;0.00;;;;;14.48;81.44;100091.06;5091419;28;8842;-56
2021/12/31 03:23:31;;;;;;;;;0.00;0.00;;;;;14.48;80.97;100095.59;5092520;28;8846;-56
2021/12/31 03:25:58;;;;;;;;;1.00;1.00;;;;;14.49;81.04;100092.75;5091630;28;8883;-56
2021/12/31 03:28:26;;;;;;;;;1.00;1.00;;;;;14.50;80.77;100088.25;5092041;28;8842;-56
2021/12/31 03:30:53;;;;;;;;;3.00;1.00;;;;;14.49;80.76;100095.44;5091039;28;8854;-56
2021/12/31 03:33:28;;;;;;;;;1.50;1.00;;;;;14.48;81.05;100090.25;5091455;28;8926;-56
2021/12/31 03:35:56;;;;;;;;;0.00;0.00;;;;;14.49;81.30;100102.66;5090731;28;8864;-56
2021/12/31 03:38:23;;;;;;;;;0.60;0.60;;;;;14.49;81.36;100097.28;5091845;28;8837;-57
2021/12/31 03:40:52;;;;;;;;;1.50;1.50;;;;;14.52;80.84;100099.66;5091521;28;8976;-56
2021/12/31 03:43:19;;;;;;;;;1.00;1.00;;;;;14.51;81.11;100090.75;5091238;28;8955;-57
2021/12/31 03:45:50;;;;;;;;;0.00;0.00;;;;;14.55;80.94;100091.31;5091498;28;8842;-56
2021/12/31 03:48:18;;;;;;;;;0.00;0.00;;;;;14.54;81.01;100095.88;5090746;28;9617;-57
2021/12/31 03:50:46;;;;;;;;;0.00;0.00;;;;;14.55;80.64;100070.75;5091570;28;9839;-56
2021/12/31 03:53:15;;;;;;;;;1.40;0.20;;;;;14.59;80.19;100090.06;5091563;28;8830;-56
2021/12/31 03:55:43;;;;;;;;;1.80;0.00;;;;;14.58;80.74;100088.38;5091021;28;8846;-57
2021/12/31 03:58:10;;;;;;;;;0.00;0.00;;;;;14.58;80.50;100091.06;5090944;28;8869;-57
2021/12/31 04:00:38;;;;;;;;;0.20;0.00;;;;;14.55;80.09;100076.09;5090857;28;8833;-57
2021/12/31 04:03:06;;;;;;;;;0.00;0.00;;;;;14.53;80.72;100077.22;5091746;28;8818;-56
2021/12/31 04:05:34;;;;;;;;;0.20;0.20;;;;;14.53;80.73;100082.59;5089490;28;8918;-57
2021/12/31 04:08:02;;;;;;;;;0.40;0.40;;;;;14.52;80.37;100086.25;5090294;28;8840;-56
2021/12/31 04:10:30;;;;;;;;;1.00;0.00;;;;;14.52;80.48;100078.22;5089583;28;8837;-56
2021/12/31 04:12:58;;;;;;;;;0.00;0.00;;;;;14.52;79.90;100078.22;5090805;28;9715;-56
2021/12/31 04:15:25;;;;;;;;;1.00;1.00;;;;;14.51;80.34;100080.03;5090262;28;8848;-57
2021/12/31 04:17:53;;;;;;;;;0.00;0.00;;;;;14.50;79.87;100066.81;5089927;28;8904;-56
2021/12/31 04:20:32;;;;;;;;;0.00;0.00;;;;;14.50;80.11;100064.97;5090556;28;8968;-56
2021/12/31 04:23:01;;;;;;;;;0.00;0.00;;;;;14.50;79.77;100054.25;5090495;28;8853;-56
2021/12/31 04:25:29;;;;;;;;;0.00;0.00;;;;;14.49;79.88;100060.59;5090005;28;8880;-57
2021/12/31 04:27:56;;;;;;;;;0.75;0.75;;;;;14.51;79.91;100068.50;5090368;28;8842;-56
2021/12/31 04:30:24;;;;;;;;;1.50;1.50;;;;;14.51;79.95;100066.66;5090681;28;8845;-57
2021/12/31 04:32:52;;;;;;;;;0.00;0.00;;;;;14.51;79.55;100068.50;5088823;28;8854;-57
2021/12/31 04:35:20;;;;;;;;;0.00;0.00;;;;;14.50;79.78;100061.47;5090077;28;8854;-56
2021/12/31 04:37:48;;;;;;;;;0.75;0.75;;;;;14.49;79.73;100051.72;5089664;28;8822;-57
2021/12/31 04:40:15;;;;;;;;;0.25;0.25;;;;;14.51;79.76;100057.78;5090499;28;8869;-57
2021/12/31 04:42:43;;;;;;;;;0.00;0.00;;;;;14.51;79.54;100047.06;5090656;28;8947;-56
2021/12/31 04:45:11;;;;;;;;;2.20;1.40;;;;;14.50;79.63;100054.25;5091190;28;8851;-57
2021/12/31 04:47:39;;;;;;;;;0.00;0.00;;;;;14.49;79.89;100046.38;5089343;28;8935;-56
2021/12/31 04:50:06;;;;;;;;;1.00;1.00;;;;;14.47;79.68;100051.88;5091149;28;8841;-57
2021/12/31 04:52:34;;;;;;;;;0.00;0.00;;;;;14.48;79.65;100058.09;5090275;28;8844;-57
2021/12/31 04:55:02;;;;;;;;;0.00;0.00;;;;;14.46;79.52;100055.53;5089937;28;8853;-56
2021/12/31 04:57:30;;;;;;;;;0.00;0.00;;;;;14.45;79.69;100050.31;5089540;28;8841;-57
2021/12/31 04:59:57;;;;;;;;;0.00;0.00;;;;;14.42;79.89;100053.28;5090122;28;9210;-56
2021/12/31 05:02:25;;;;;;;;;0.25;0.25;;;;;14.42;79.44;100061.31;5090505;28;8873;-56
2021/12/31 05:04:53;;;;;;;;;1.00;1.00;;;;;14.41;79.76;100051.59;5090077;28;8884;-57
2021/12/31 05:07:21;;;;;;;;;0.60;0.60;;;;;14.39;79.48;100048.19;5089307;28;8846;-56
2021/12/31 05:09:48;;;;;;;;;0.50;0.50;;;;;14.32;79.63;100047.06;5089678;28;8864;-56
2021/12/31 05:12:23;;;;;;;;;1.00;1.00;;;;;14.27;79.12;100046.69;5090743;28;8832;-56
2021/12/31 05:14:50;;;;;;;;;0.00;0.00;;;;;14.23;79.49;100047.94;5089000;28;8992;-56
2021/12/31 05:17:18;;;;;;;;;1.00;1.00;;;;;14.19;79.31;100047.38;5090134;28;8854;-56
2021/12/31 05:19:46;;;;;;;;;0.40;0.40;;;;;14.15;79.61;100047.78;5089312;28;8854;-56
2021/12/31 05:22:13;;;;;;;;;0.00;0.00;;;;;14.08;80.28;100046.66;5090154;28;8838;-56
2021/12/31 05:24:41;;;;;;;;;0.00;0.00;;;;;14.06;79.60;100053.97;5090384;28;8841;-56
2021/12/31 05:27:09;;;;;;;;;0.25;0.25;;;;;14.03;80.46;100057.78;5090203;28;9015;-57
2021/12/31 05:29:37;;;;;;;;;0.00;0.00;;;;;14.03;80.00;100056.97;5090420;28;9585;-56
2021/12/31 05:32:04;;;;;;;;;0.00;0.00;;;;;13.99;79.90;100042.16;5088123;28;8845;-56
2021/12/31 05:34:32;;;;;;;;;1.00;1.00;;;;;13.96;79.64;100045.94;5089216;28;8968;-56
2021/12/31 05:37:00;;;;;;;;;1.00;1.00;;;;;13.95;79.95;100054.09;5090024;28;8869;-57
2021/12/31 05:39:27;;;;;;;;;0.00;0.00;;;;;13.93;79.90;100045.38;5089421;28;8842;-57
2021/12/31 05:41:55;;;;;;;;;0.00;0.00;;;;;13.94;79.20;100052.41;5089794;28;8838;-57
2021/12/31 05:44:23;;;;;;;;;1.75;0.00;;;;;13.90;79.50;100051.03;5090216;28;8949;-57
2021/12/31 05:46:53;;;;;;;;;0.00;0.00;;;;;13.84;79.92;100052.44;5089063;28;8868;-57
2021/12/31 05:49:27;;;;;;;;;0.00;0.00;;;;;13.80;80.23;100051.00;5087788;28;8864;-56
2021/12/31 05:51:55;;;;;;;;;1.00;1.00;;;;;13.77;79.94;100039.75;5088395;28;9518;-56
2021/12/31 05:54:23;;;;;;;;;1.50;1.50;;;;;13.74;80.02;100040.84;5089888;28;8876;-56
2021/12/31 05:56:52;;;;;;;;;1.00;1.00;;;;;13.70;80.18;100036.78;5089667;28;8861;-57
2021/12/31 05:59:19;;;;;;;;;0.25;0.25;;;;;13.66;80.26;100042.56;5088497;28;8974;-57
2021/12/31 06:01:47;;;;;;;;;3.00;0.00;;;;;13.64;80.61;100049.84;5087906;28;8845;-58
2021/12/31 06:04:16;;;;;;;;;1.00;1.00;;;;;13.62;80.10;100054.50;5089738;28;8850;-56
2021/12/31 06:06:44;;;;;;;;;0.75;0.00;;;;;13.59;80.52;100036.06;5090136;28;8968;-57
2021/12/31 06:09:13;;;;;;;;;3.00;2.00;;;;;13.56;80.62;100055.91;5090385;28;8966;-58
2021/12/31 06:11:40;;;;;;;;;0.50;0.50;;;;;13.56;80.24;100044.34;5090541;28;8854;-57
2021/12/31 06:14:08;;;;;;;;;3.00;1.00;;;;;13.53;80.42;100040.13;5089903;28;8981;-56
2021/12/31 06:16:40;;;;;;;;;1.00;1.00;;;;;13.52;80.00;100032.25;5089186;28;8862;-56
2021/12/31 06:19:08;;;;;;;;;0.00;0.00;;;;;13.48;80.61;100022.78;5088872;28;8827;-57
2021/12/31 06:21:36;;;;;;;;;1.00;1.00;;;;;13.41;80.72;100030.53;5088706;28;8861;-56
2021/12/31 06:24:04;;;;;;;;;0.00;0.00;;;;;13.35;80.73;100017.72;5088235;28;8857;-57
2021/12/31 06:26:32;;;;;;;;;1.00;1.00;;;;;13.30;80.49;100029.81;5088037;28;8978;-57
2021/12/31 06:29:00;;;;;;;;;0.25;0.25;;;;;13.26;80.41;100012.34;5092622;28;9709;-56
2021/12/31 06:31:27;;;;;;;;;0.00;0.00;;;;;13.24;80.92;100025.88;5092381;28;8854;-57
2021/12/31 06:33:55;;;;;;;;;0.25;0.00;;;;;13.20;80.53;100028.94;5091955;28;8865;-57
2021/12/31 06:36:23;;;;;;;;;1.00;0.75;;;;;13.19;80.83;100035.25;5092475;28;8846;-56
2021/12/31 06:38:51;;;;;;;;;1.00;1.00;;;;;13.18;81.11;100037.09;5091209;28;8841;-57
2021/12/31 06:41:20;;;;;;;;;0.50;0.50;;;;;13.20;80.55;100036.97;5093869;28;8850;-56
2021/12/31 06:43:48;;;;;;;;;0.50;0.50;;;;;13.23;80.82;100050.06;5092570;28;8846;-56
2021/12/31 06:46:16;;;;;;;;;1.00;1.00;;;;;13.25;80.81;100040.06;5092188;28;8862;-57
2021/12/31 06:48:44;;;;;;;;;1.00;1.00;;;;;13.28;80.43;100045.16;5092381;28;8846;-57
2021/12/31 06:51:12;;;;;;;;;1.00;1.00;;;;;13.31;80.84;100044.88;5091000;28;8838;-57
2021/12/31 06:53:40;;;;;;;;;1.00;1.00;;;;;13.35;80.92;100043.63;5090503;28;8844;-57
2021/12/31 06:56:07;;;;;;;;;0.25;0.25;;;;;13.36;80.88;100045.31;5090809;28;8849;-57
2021/12/31 06:58:37;;;;;;;;;0.00;0.00;;;;;13.38;80.02;100040.66;5091862;28;8887;-57
2021/12/31 07:01:05;;;;;;;;;1.00;1.00;;;;;13.39;80.46;100039.69;5091548;28;8934;-57
2021/12/31 07:03:33;;;;;;;;;1.00;1.00;;;;;13.36;80.22;100030.09;5091550;28;8834;-56
2021/12/31 07:06:00;;;;;;;;;1.00;1.00;;;;;13.35;80.70;100033.75;5091012;28;8862;-57
2021/12/31 07:08:28;;;;;;;;;2.50;1.00;;;;;13.33;80.89;100019.69;5091552;28;8850;-56
2021/12/31 07:10:56;;;;;;;;;0.00;0.00;;;;;13.28;80.62;100011.22;5091488;28;8862;-56
2021/12/31 07:13:24;;;;;;;;;1.00;0.50;;;;;13.23;80.96;100002.75;5091986;28;8846;-56
2021/12/31 07:15:51;;;;;;;;;2.00;2.00;;;;;13.21;80.43;100017.25;5089795;28;8870;-57
2021/12/31 07:18:19;;;;;;;;;1.25;0.75;;;;;13.17;80.96;100019.38;5092428;28;8972;-57
2021/12/31 07:20:47;;;;;;;;;1.00;1.00;;;;;13.13;81.22;100017.09;5089828;28;8846;-57
2021/12/31 07:23:15;;;;;;;;;2.50;2.50;;;;;13.08;80.94;100008.63;5090269;28;9531;-56
2021/12/31 07:25:42;;;;;;;;;0.00;0.00;;;;;13.03;80.88;100018.88;5091242;28;8846;-56
2021/12/31 07:28:10;;;;;;;;;1.00;0.75;;;;;13.03;81.36;100016.22;5089525;28;8853;-57
2021/12/31 07:30:38;;;;;;;;;0.75;0.75;;;;;13.05;81.49;100024.97;5091836;28;8930;-56
2021/12/31 07:33:06;;;;;;;;;0.25;0.25;;;;;13.05;81.41;100019.63;5091434;28;8903;-57
2021/12/31 07:35:34;;;;;;;;;0.00;0.00;;;;;13.08;81.19;100027.34;5091834;28;8849;-57
2021/12/31 07:38:01;;;;;;;;;0.75;0.75;;;;;13.12;81.06;100044.78;5091222;28;8865;-56
2021/12/31 07:40:38;;;;;;;;;1.00;1.00;;;;;13.16;81.12;100032.88;5090099;28;8874;-58
2021/12/31 07:43:05;;;;;;;;;1.50;1.50;;;;;13.22;80.51;100043.84;5090496;28;8877;-57
2021/12/31 07:45:33;;;;;;;;;1.00;0.00;;;;;13.27;80.68;100036.28;5090203;28;8884;-56
2021/12/31 07:48:01;;;;;;;;;0.50;0.50;;;;;13.28;80.65;100037.97;5090669;28;8950;-56
2021/12/31 07:50:28;;;;;;;;;1.00;0.50;;;;;13.29;80.33;100033.47;5089427;28;8810;-57
2021/12/31 07:52:56;;;;;;;;;0.50;0.50;;;;;13.29;80.30;100031.63;5091139;28;8846;-57
2021/12/31 07:55:24;;;;;;;;;0.00;0.00;;;;;13.28;80.50;100034.47;5088466;28;8853;-57
2021/12/31 07:57:52;;;;;;;;;3.50;1.00;;;;;13.26;80.95;100028.38;5089706;28;8853;-57
2021/12/31 08:00:20;;;;;;;;;1.00;1.00;;;;;13.24;80.91;100028.53;5089666;28;8865;-57
2021/12/31 08:02:48;;;;;;;;;0.50;0.50;;;;;13.23;80.66;100026.81;5089584;28;8857;-56
2021/12/31 08:05:16;;;;;;;;;0.00;0.00;;;;;13.21;80.53;100039.50;5088191;28;8861;-57
2021/12/31 08:07:44;;;;;;;;;0.50;0.50;;;;;13.21;80.94;100041.34;5088021;28;8842;-57
2021/12/31 08:10:12;;;;;;;;;1.00;0.50;;;;;13.20;80.57;100040.47;5088407;28;8868;-57
2021/12/31 08:13:00;;;;;;;;;0.75;0.75;;;;;13.21;80.78;100038.66;5087111;28;8858;-57
2021/12/31 08:15:28;;;;;;;;;0.50;0.50;;;;;13.24;80.65;100033.03;5087996;28;8876;-56
2021/12/31 08:17:55;;;;;;;;;1.00;1.00;;;;;13.27;80.54;100046.97;5088332;28;8856;-56
2021/12/31 08:20:27;;;;;;;;;2.00;2.00;;;;;13.30;80.81;100041.34;5087263;28;9277;-57
2021/12/31 08:22:56;;;;;;;;;3.00;0.50;;;;;13.33;80.29;100041.09;5087176;28;8857;-56
2021/12/31 08:25:24;;;;;;;;;1.00;0.00;;;;;13.35;80.67;100033.75;5088331;28;8850;-57
2021/12/31 08:27:52;;;;;;;;;0.25;0.25;;;;;13.39;79.90;100037.00;5088058;28;8846;-56
2021/12/31 08:30:20;;;;;;;;;1.00;1.00;;;;;13.42;79.94;100034.03;5087604;28;8846;-56
2021/12/31 08:32:48;;;;;;;;;0.50;0.50;;;;;13.44;80.39;100040.13;5089197;28;8838;-56
2021/12/31 08:35:15;;;;;;;;;0.25;0.25;;;;;13.45;79.79;100039.13;5087997;28;8842;-56
2021/12/31 08:37:43;;;;;;;;;0.75;0.75;;;;;13.46;80.02;100036.34;5088721;28;8856;-57
2021/12/31 08:40:11;;;;;;;;;0.00;0.00;;;;;13.49;80.21;100040.53;5089245;28;8862;-57
2021/12/31 08:42:39;;;;;;;;;3.00;1.00;;;;;13.49;80.16;100038.72;5089648;28;8841;-56
2021/12/31 08:45:06;;;;;;;;;1.00;1.00;;;;;13.52;79.95;100049.13;5088813;28;8864;-57
2021/12/31 08:47:34;;;;;;;;;1.50;1.00;;;;;13.52;79.49;100032.25;5088108;28;8862;-57
2021/12/31 08:50:05;;;;;;;;;0.00;0.00;;;;;13.51;79.60;100034.06;5087634;28;9542;-56
2021/12/31 08:52:33;;;;;;;;;1.00;1.00;;;;;13.51;79.68;100035.91;5087306;28;8968;-58
2021/12/31 08:55:01;;;;;;;;;1.00;0.25;;;;;13.52;79.74;100033.09;5085433;28;8877;-56
2021/12/31 08:57:29;;;;;;;;;1.00;1.00;;;;;13.53;79.76;100042.78;5086624;28;8876;-57
2021/12/31 08:59:56;;;;;;;;;2.00;2.00;;;;;13.54;79.76;100054.34;5085145;28;8842;-57
2021/12/31 09:02:24;;;;;;;;;0.50;0.50;;;;;13.54;79.60;100049.88;5085546;28;8856;-57
2021/12/31 09:04:52;;;;;;;;;0.00;0.00;;;;;13.58;79.32;100042.41;5085174;28;8972;-58
2021/12/31 09:07:20;;;;;;;;;1.00;1.00;;;;;13.60;79.41;100056.50;5085071;28;8858;-57
2021/12/31 09:09:47;;;;;;;;;0.00;0.00;;;;;13.65;79.41;100055.09;5085153;28;8985;-58
2021/12/31 09:12:15;;;;;;;;;0.00;0.00;;;;;13.71;79.42;100061.69;5087098;28;9125;-57
2021/12/31 09:14:43;;;;;;;;;1.00;1.00;;;;;13.73;78.74;100049.06;5086217;28;8846;-57
2021/12/31 09:17:11;;;;;;;;;0.00;0.00;;;;;13.76;78.89;100065.69;5084934;28;9507;-57
2021/12/31 09:19:38;;;;;;;;;1.00;1.00;;;;;13.81;78.90;100059.91;5085740;28;8846;-57
2021/12/31 09:22:06;;;;;;;;;0.00;0.00;;;;;13.82;79.03;100058.91;5086163;28;8904;-57
2021/12/31 09:24:34;;;;;;;;;0.00;0.00;;;;;13.85;78.95;100080.03;5083915;28;8838;-58
2021/12/31 09:27:02;;;;;;;;;0.50;0.50;;;;;13.87;78.64;100072.72;5087856;28;8853;-57
2021/12/31 09:29:29;;;;;;;;;1.00;0.25;;;;;13.90;78.51;100067.09;5087218;28;8857;-56
2021/12/31 09:31:57;;;;;;;;;0.00;0.00;;;;;13.93;78.50;100072.16;5086093;28;8980;-56
2021/12/31 09:34:25;;;;;;;;;1.50;1.50;;;;;13.94;77.95;100076.53;5086182;28;8984;-56
2021/12/31 09:36:53;;;;;;;;;3.25;3.00;;;;;13.98;77.81;100064.56;5085116;28;8991;-57
2021/12/31 09:39:21;;;;;;;;;1.00;1.00;;;;;14.03;78.34;100057.78;5085195;28;8838;-57
2021/12/31 09:41:48;;;;;;;;;0.00;0.00;;;;;14.05;77.99;100061.16;5085885;28;8842;-57
2021/12/31 09:44:16;;;;;;;;;0.50;0.50;;;;;14.06;78.27;100073.59;5083275;28;9392;-57
2021/12/31 09:46:44;;;;;;;;;0.75;0.75;;;;;14.06;77.96;100051.31;5085745;28;8992;-56
2021/12/31 09:49:11;;;;;;;;;2.00;2.00;;;;;14.07;77.38;100066.38;5083950;28;8874;-56
2021/12/31 09:51:39;;;;;;;;;1.00;1.00;;;;;14.09;77.99;100075.13;5085839;28;9759;-57
2021/12/31 09:54:07;;;;;;;;;0.50;0.50;;;;;14.13;77.63;100053.25;5085686;28;8868;-57
2021/12/31 09:56:39;;;;;;;;;1.00;1.00;;;;;14.21;77.32;100049.94;5084721;28;8845;-57
2021/12/31 09:59:07;;;;;;;;;0.00;0.00;;;;;14.32;76.91;100052.44;5084076;28;8976;-57
2021/12/31 10:01:34;;;;;;;;;0.75;0.75;;;;;14.43;76.91;100060.34;5085317;28;8857;-58
2021/12/31 10:04:04;;;;;;;;;0.00;0.00;;;;;14.57;76.26;100052.69;5087410;28;8976;-56
2021/12/31 10:06:32;;;;;;;;;1.25;1.25;;;;;14.68;76.32;100049.00;5087187;28;8873;-57
2021/12/31 10:09:00;;;;;;;;;1.00;1.00;;;;;14.74;76.17;100053.78;5087272;28;8850;-57
2021/12/31 10:11:27;;;;;;;;;0.00;0.00;;;;;14.82;75.46;100048.53;5086600;28;8834;-58
2021/12/31 10:13:55;;;;;;;;;1.00;0.75;;;;;15.04;74.76;100043.66;5088481;28;8846;-57
2021/12/31 10:16:23;;;;;;;;;1.00;1.00;;;;;15.15;74.81;100037.22;5082632;28;8865;-58
2021/12/31 10:18:51;;;;;;;;;1.00;1.00;;;;;15.12;74.92;100041.09;5086220;28;8914;-58
2021/12/31 10:21:20;;;;;;;;;0.00;0.00;;;;;15.05;74.63;100047.16;5088505;28;8858;-57
2021/12/31 10:23:48;;;;;;;;;0.00;0.00;;;;;15.02;74.81;100029.53;5085124;28;8879;-57
2021/12/31 10:26:17;;;;;;;;;1.00;1.00;;;;;15.01;74.79;100025.16;5085376;28;8960;-57
2021/12/31 10:28:45;;;;;;;;;1.00;1.00;;;;;14.99;74.58;100027.16;5084701;28;8903;-57
2021/12/31 10:31:12;;;;;;;;;0.00;0.00;;;;;15.01;74.43;100029.69;5084320;28;8976;-57
2021/12/31 10:33:41;;;;;;;;;0.00;0.00;;;;;15.00;74.56;100027.97;5086746;28;8846;-57
2021/12/31 10:36:08;;;;;;;;;0.60;0.00;;;;;15.00;74.38;100017.25;5086756;28;8854;-58
2021/12/31 10:38:36;;;;;;;;;0.00;0.00;;;;;15.00;74.31;100039.56;5085070;28;8980;-57
2021/12/31 10:41:05;;;;;;;;;1.00;1.00;;;;;15.09;74.64;100033.31;5084418;28;8850;-57
2021/12/31 10:43:33;;;;;;;;;1.00;1.00;;;;;15.27;73.77;100036.06;5085103;28;8887;-57
2021/12/31 10:46:00;;;;;;;;;1.00;1.00;;;;;15.58;72.86;100013.28;5085763;28;8866;-58
2021/12/31 10:48:28;;;;;;;;;0.00;0.00;;;;;15.81;72.59;100049.44;5084912;28;8934;-58
2021/12/31 10:50:56;;;;;;;;;0.00;0.00;;;;;15.92;72.26;100033.13;5085965;28;8834;-57
2021/12/31 10:53:27;;;;;;;;;1.00;1.00;;;;;15.93;71.96;100045.53;5085914;28;9000;-58
2021/12/31 10:55:54;;;;;;;;;0.00;0.00;;;;;15.86;72.47;100045.28;5085962;28;8860;-58
2021/12/31 10:58:22;;;;;;;;;0.00;0.00;;;;;15.76;72.69;100049.06;5087450;28;8872;-58
2021/12/31 11:00:50;;;;;;;;;0.60;0.60;;;;;15.66;72.74;100042.91;5084280;28;9000;-58
2021/12/31 11:03:19;;;;;;;;;0.40;0.00;;;;;15.58;72.90;100024.03;5081835;28;8934;-57
2021/12/31 11:05:48;;;;;;;;;1.40;1.00;;;;;15.54;72.99;100030.72;5086963;28;8887;-57
2021/12/31 11:08:16;;;;;;;;;0.20;0.20;;;;;15.51;72.70;100022.94;5087444;28;8853;-58
2021/12/31 11:10:44;;;;;;;;;0.00;0.00;;;;;15.56;72.51;100029.53;5087822;28;8976;-57
2021/12/31 11:13:11;;;;;;;;;0.60;0.00;;;;;15.87;71.55;100035.41;5083788;28;8921;-58
2021/12/31 11:15:39;;;;;;;;;1.00;0.80;;;;;15.95;71.24;100022.91;5086347;28;8866;-58
2021/12/31 11:18:08;;;;;;;;;0.00;0.00;;;;;15.82;71.55;100013.53;5086361;28;8850;-58
2021/12/31 11:20:36;;;;;;;;;0.60;0.00;;;;;15.65;72.10;100036.72;5085821;28;8830;-58
2021/12/31 11:23:04;;;;;;;;;0.00;0.00;;;;;15.55;72.62;100030.53;5085700;28;8845;-58
2021/12/31 11:25:43;;;;;;;;;0.20;0.20;;;;;15.49;72.19;100035.69;5086181;28;8892;-57
2021/12/31 11:28:11;;;;;;;;;2.20;1.00;;;;;15.41;72.95;100023.00;5084500;28;8874;-58
2021/12/31 11:30:39;;;;;;;;;1.00;1.00;;;;;15.30;72.71;100016.97;5086722;28;8864;-58
2021/12/31 11:33:06;;;;;;;;;0.00;0.00;;;;;15.17;73.25;100020.00;5086021;28;8875;-57
2021/12/31 11:35:34;;;;;;;;;0.60;0.20;;;;;15.09;73.36;100001.13;5085693;28;8848;-57
2021/12/31 11:38:02;;;;;;;;;0.00;0.00;;;;;14.99;73.54;100008.38;5086804;28;8976;-57